createdAt,value
2018-09-24T00:00:14.127Z,75.57
2018-09-24T00:02:43.828Z,75.48
2018-09-24T00:05:13.595Z,75.27
2018-09-24T00:07:43.123Z,74.73
2018-09-24T00:10:12.607Z,74.17
2018-09-24T00:12:42.871Z,74.54
2018-09-24T00:15:13.528Z,74.87
2018-09-24T00:17:42.924Z,74.77
2018-09-24T00:20:12.939Z,74.40
2018-09-24T00:22:43.467Z,74.35
2018-09-24T00:25:12.877Z,74.35
2018-09-24T00:27:42.989Z,74.36
2018-09-24T00:30:12.665Z,73.47
2018-09-24T00:32:42.112Z,73.24
2018-09-24T00:35:12.377Z,72.45
2018-09-24T00:37:42.092Z,72.79
2018-09-24T00:40:11.543Z,71.71
2018-09-24T00:42:41.714Z,70.69
2018-09-24T00:45:11.543Z,70.86
2018-09-24T00:47:41.021Z,71.24
2018-09-24T00:50:11.579Z,71.35
2018-09-24T00:52:41.023Z,72.06
2018-09-24T00:55:10.571Z,72.68
2018-09-24T00:57:40.189Z,72.45
2018-09-24T01:00:09.619Z,72.88
2018-09-24T01:02:39.128Z,73.41
2018-09-24T01:05:08.642Z,73.78
2018-09-24T01:07:38.871Z,74.68
2018-09-24T01:10:08.719Z,75.20
2018-09-24T01:12:38.188Z,74.46
2018-09-24T01:15:07.905Z,73.92
2018-09-24T01:17:37.243Z,73.92
2018-09-24T01:20:07.905Z,74.86
2018-09-24T01:22:37.376Z,74.54
2018-09-24T01:25:07.198Z,74.89
2018-09-24T01:27:37.110Z,75.00
2018-09-24T01:30:06.832Z,75.12
2018-09-24T01:32:36.180Z,75.21
2018-09-24T01:35:05.596Z,75.42
2018-09-24T01:37:34.993Z,75.37
2018-09-24T01:40:04.391Z,75.23
2018-09-24T01:42:33.802Z,75.46
2018-09-24T01:45:03.195Z,75.51
2018-09-24T01:47:32.572Z,75.36
2018-09-24T01:50:02.090Z,74.62
2018-09-24T01:52:31.881Z,74.94
2018-09-24T01:55:01.216Z,75.13
2018-09-24T01:57:30.548Z,75.45
2018-09-24T01:59:59.996Z,75.75
2018-09-24T02:02:29.336Z,76.05
2018-09-24T02:04:58.733Z,76.23
2018-09-24T02:07:28.168Z,76.52
2018-09-24T02:09:58.058Z,75.94
2018-09-24T02:12:27.529Z,75.57
2018-09-24T02:14:57.224Z,75.72
2018-09-24T02:17:26.571Z,75.99
2018-09-24T02:19:55.932Z,76.25
2018-09-24T02:22:29.368Z,75.94
2018-09-24T02:24:59.759Z,75.82
2018-09-24T02:27:29.133Z,76.29
2018-09-24T02:29:58.970Z,75.52
2018-09-24T02:32:28.370Z,75.23
2018-09-24T02:34:58.694Z,75.89
2018-09-24T02:37:28.043Z,75.92
2018-09-24T02:39:57.395Z,75.19
2018-09-24T02:42:26.900Z,74.69
2018-09-24T02:44:57.739Z,75.06
2018-09-24T02:47:32.682Z,74.89
2018-09-24T02:50:03.708Z,73.92
2018-09-24T02:52:33.115Z,73.48
2018-09-24T02:55:03.023Z,74.20
2018-09-24T02:57:32.421Z,74.88
2018-09-24T03:00:01.867Z,74.88
2018-09-24T03:02:31.177Z,74.95
2018-09-24T03:05:00.528Z,75.00
2018-09-24T03:07:29.826Z,75.04
2018-09-24T03:09:59.144Z,74.68
2018-09-24T03:12:28.535Z,75.21
2018-09-24T03:14:57.830Z,74.63
2018-09-24T03:17:27.178Z,74.60
2018-09-24T03:19:56.574Z,74.65
2018-09-24T03:22:26.727Z,74.49
2018-09-24T03:24:56.073Z,74.54
2018-09-24T03:27:25.462Z,73.96
2018-09-24T03:29:54.800Z,73.66
2018-09-24T03:32:24.096Z,73.93
2018-09-24T03:34:53.731Z,74.00
2018-09-24T03:37:23.018Z,73.88
2018-09-24T03:39:52.376Z,74.20
2018-09-24T03:42:21.732Z,73.75
2018-09-24T03:44:51.067Z,73.68
2018-09-24T03:47:20.387Z,73.70
2018-09-24T03:49:49.754Z,73.60
2018-09-24T03:52:19.136Z,73.40
2018-09-24T03:54:48.544Z,73.95
2018-09-24T03:57:18.452Z,73.85
2018-09-24T03:59:47.811Z,73.65
2018-09-24T04:02:17.154Z,74.01
2018-09-24T04:04:51.756Z,74.09
2018-09-24T04:07:26.384Z,73.19
2018-09-24T04:10:01.091Z,72.66
2018-09-24T04:12:35.513Z,72.66
2018-09-24T04:15:10.269Z,73.00
2018-09-24T04:17:44.943Z,72.92
2018-09-24T04:20:19.502Z,72.54
2018-09-24T04:22:54.129Z,71.51
2018-09-24T04:25:28.684Z,71.72
2018-09-24T04:28:03.266Z,71.11
2018-09-24T04:30:38.380Z,70.63
2018-09-24T04:33:12.860Z,69.88
2018-09-24T04:35:47.519Z,69.67
2018-09-24T04:38:22.174Z,70.16
2018-09-24T04:40:56.801Z,70.52
2018-09-24T04:43:31.363Z,70.89
2018-09-24T04:46:06.300Z,70.78
2018-09-24T04:48:40.847Z,71.47
2018-09-24T04:51:17.184Z,71.04
2018-09-24T04:53:51.977Z,70.99
2018-09-24T04:56:26.471Z,69.61
2018-09-24T04:59:01.117Z,70.68
2018-09-24T05:01:36.123Z,71.19
2018-09-24T05:04:10.733Z,70.81
2018-09-24T05:06:45.423Z,71.07
2018-09-24T05:09:19.888Z,70.47
2018-09-24T05:11:54.499Z,70.39
2018-09-24T05:14:29.178Z,70.73
2018-09-24T05:17:04.282Z,71.43
2018-09-24T05:19:38.952Z,72.09
2018-09-24T05:22:14.041Z,72.38
2018-09-24T05:24:48.664Z,72.59
2018-09-24T05:27:23.418Z,72.87
2018-09-24T05:29:57.755Z,73.25
2018-09-24T05:32:32.713Z,72.39
2018-09-24T05:35:07.268Z,72.50
2018-09-24T05:37:41.813Z,71.90
2018-09-24T05:40:16.387Z,71.84
2018-09-24T05:42:51.041Z,70.90
2018-09-24T05:45:25.534Z,68.96
2018-09-24T05:48:00.398Z,66.96
2018-09-24T05:50:34.835Z,66.24
2018-09-24T05:53:09.533Z,65.16
2018-09-24T05:55:44.120Z,64.61
2018-09-24T05:58:18.768Z,63.17
2018-09-24T06:00:53.516Z,65.28
2018-09-24T06:03:28.398Z,66.49
2018-09-24T06:06:02.949Z,66.91
2018-09-24T06:08:37.627Z,67.64
2018-09-24T06:11:12.329Z,67.88
2018-09-24T06:13:47.276Z,68.35
2018-09-24T06:16:21.876Z,66.82
2018-09-24T06:18:56.744Z,66.25
2018-09-24T06:21:31.320Z,67.36
2018-09-24T06:24:06.234Z,66.26
2018-09-24T06:26:41.021Z,62.46
2018-09-24T06:29:15.756Z,59.37
2018-09-24T06:31:50.475Z,59.89
2018-09-24T06:34:25.510Z,61.38
2018-09-24T06:36:59.943Z,64.47
2018-09-24T06:39:34.778Z,66.23
2018-09-24T06:42:09.301Z,67.11
2018-09-24T06:44:43.965Z,66.34
2018-09-24T06:47:18.622Z,63.24
2018-09-24T06:49:53.466Z,56.65
2018-09-24T06:52:28.008Z,51.48
2018-09-24T06:55:02.614Z,48.39
2018-09-24T06:57:37.200Z,45.17
2018-09-24T07:00:12.928Z,43.19
2018-09-24T07:02:47.431Z,43.66
2018-09-24T07:05:22.695Z,47.01
2018-09-24T07:07:57.323Z,47.35
2018-09-24T07:10:32.185Z,45.98
2018-09-24T07:13:06.937Z,42.81
2018-09-24T07:15:41.586Z,40.14
2018-09-24T07:18:16.179Z,41.11
2018-09-24T07:20:51.063Z,40.52
2018-09-24T07:23:25.788Z,41.04
2018-09-24T07:26:00.317Z,40.05
2018-09-24T07:28:34.936Z,39.11
2018-09-24T07:31:09.451Z,42.78
2018-09-24T07:33:44.041Z,42.90
2018-09-24T07:36:18.705Z,43.54
2018-09-24T07:38:53.369Z,46.27
2018-09-24T07:41:28.004Z,46.28
2018-09-24T07:44:02.615Z,39.01
2018-09-24T07:46:37.137Z,36.68
2018-09-24T07:49:12.011Z,34.03
2018-09-24T07:51:47.185Z,33.77
2018-09-24T07:54:21.835Z,33.03
2018-09-24T07:56:56.322Z,31.83
2018-09-24T07:59:30.848Z,31.95
2018-09-24T08:02:05.497Z,30.49
2018-09-24T08:04:40.339Z,30.87
2018-09-24T08:07:15.580Z,29.42
2018-09-24T08:09:50.241Z,28.26
2018-09-24T08:12:25.101Z,28.62
2018-09-24T08:14:59.668Z,27.35
2018-09-24T08:17:34.300Z,26.95
2018-09-24T08:20:08.812Z,26.05
2018-09-24T08:22:43.854Z,26.96
2018-09-24T08:25:18.563Z,25.66
2018-09-24T08:27:53.057Z,25.18
2018-09-24T08:30:27.743Z,27.27
2018-09-24T08:33:02.443Z,27.06
2018-09-24T08:35:36.905Z,25.30
2018-09-24T08:38:11.854Z,24.95
2018-09-24T08:40:46.714Z,24.51
2018-09-24T08:43:21.463Z,24.89
2018-09-24T08:45:56.198Z,23.52
2018-09-24T08:48:30.860Z,23.21
2018-09-24T08:51:05.278Z,22.22
2018-09-24T08:53:39.994Z,21.10
2018-09-24T08:56:14.781Z,22.50
2018-09-24T08:58:49.675Z,22.03
2018-09-24T09:01:24.334Z,24.23
2018-09-24T09:03:59.053Z,26.15
2018-09-24T09:06:33.679Z,26.91
2018-09-24T09:09:08.563Z,31.74
2018-09-24T09:11:43.041Z,35.82
2018-09-24T09:14:17.622Z,35.16
2018-09-24T09:16:52.240Z,34.69
2018-09-24T09:19:26.904Z,36.79
2018-09-24T09:22:01.529Z,33.63
2018-09-24T09:24:36.623Z,28.41
2018-09-24T09:27:11.281Z,30.02
2018-09-24T09:29:45.916Z,28.22
2018-09-24T09:32:20.493Z,25.09
2018-09-24T09:34:55.097Z,26.23
2018-09-24T09:37:29.723Z,26.62
2018-09-24T09:40:04.786Z,25.97
2018-09-24T09:42:39.420Z,23.34
2018-09-24T09:45:13.824Z,22.39
2018-09-24T09:47:48.330Z,21.93
2018-09-24T09:50:22.979Z,20.86
2018-09-24T09:52:57.584Z,21.44
2018-09-24T09:55:32.379Z,20.96
2018-09-24T09:58:06.882Z,21.80
2018-09-24T10:00:41.519Z,21.58
2018-09-24T10:03:16.215Z,22.61
2018-09-24T10:05:50.891Z,24.23
2018-09-24T10:08:25.427Z,26.84
2018-09-24T10:11:00.226Z,28.90
2018-09-24T10:13:34.744Z,32.08
2018-09-24T10:16:09.325Z,31.30
2018-09-24T10:18:43.909Z,30.60
2018-09-24T10:21:18.549Z,30.63
2018-09-24T10:23:53.213Z,30.32
2018-09-24T10:26:28.187Z,33.07
2018-09-24T10:29:02.709Z,34.50
2018-09-24T10:31:37.226Z,35.93
2018-09-24T10:34:11.699Z,36.12
2018-09-24T10:36:46.458Z,37.64
2018-09-24T10:39:21.013Z,42.75
2018-09-24T10:41:55.720Z,43.71
2018-09-24T10:44:30.203Z,45.44
2018-09-24T10:47:04.797Z,44.08
2018-09-24T10:49:39.416Z,42.47
2018-09-24T10:52:14.116Z,41.81
2018-09-24T10:54:48.763Z,40.54
2018-09-24T10:57:24.602Z,38.38
2018-09-24T10:59:59.220Z,36.70
2018-09-24T11:02:33.883Z,32.92
2018-09-24T11:05:08.472Z,33.88
2018-09-24T11:07:44.117Z,33.87
2018-09-24T11:10:18.871Z,32.42
2018-09-24T11:12:53.802Z,31.76
2018-09-24T11:15:28.522Z,27.70
2018-09-24T11:18:03.187Z,26.37
2018-09-24T11:20:37.866Z,22.76
2018-09-24T11:23:12.822Z,24.16
2018-09-24T11:25:47.856Z,24.86
2018-09-24T11:28:23.582Z,23.05
2018-09-24T11:30:58.816Z,20.25
2018-09-24T11:33:33.787Z,19.49
2018-09-24T11:36:08.868Z,21.32
2018-09-24T11:38:43.441Z,21.19
2018-09-24T11:41:18.226Z,21.73
2018-09-24T11:43:53.877Z,21.23
2018-09-24T11:46:28.456Z,21.62
2018-09-24T11:49:03.226Z,21.28
2018-09-24T11:51:37.861Z,21.24
2018-09-24T11:54:12.891Z,24.44
2018-09-24T11:56:47.373Z,22.58
2018-09-24T11:59:22.324Z,21.39
2018-09-24T12:01:56.874Z,21.67
2018-09-24T12:04:31.502Z,20.45
2018-09-24T12:07:06.128Z,21.13
2018-09-24T12:09:41.307Z,21.31
2018-09-24T12:12:15.949Z,21.25
2018-09-24T12:14:50.822Z,20.06
2018-09-24T12:17:25.649Z,19.00
2018-09-24T12:20:00.173Z,18.37
2018-09-24T12:22:34.980Z,20.46
2018-09-24T12:25:09.447Z,20.47
2018-09-24T12:27:44.029Z,22.34
2018-09-24T12:30:18.878Z,20.47
2018-09-24T12:32:53.533Z,19.26
2018-09-24T12:35:28.149Z,19.02
2018-09-24T12:38:02.660Z,21.09
2018-09-24T12:40:37.271Z,20.20
2018-09-24T12:43:11.758Z,20.54
2018-09-24T12:45:47.067Z,20.65
2018-09-24T12:48:21.846Z,21.20
2018-09-24T12:50:56.223Z,24.53
2018-09-24T12:53:30.811Z,25.29
2018-09-24T12:56:05.316Z,26.16
2018-09-24T12:58:39.848Z,25.23
2018-09-24T13:01:14.792Z,22.30
2018-09-24T13:03:49.622Z,21.94
2018-09-24T13:06:24.425Z,21.82
2018-09-24T13:08:59.049Z,21.47
2018-09-24T13:11:33.733Z,23.68
2018-09-24T13:14:08.344Z,26.47
2018-09-24T13:16:43.376Z,28.60
2018-09-24T13:19:18.063Z,27.44
2018-09-24T13:21:52.691Z,27.81
2018-09-24T13:24:27.258Z,29.52
2018-09-24T13:27:01.918Z,30.11
2018-09-24T13:29:36.364Z,29.93
2018-09-24T13:32:11.577Z,33.28
2018-09-24T13:34:46.264Z,37.53
2018-09-24T13:37:20.957Z,41.35
2018-09-24T13:39:55.668Z,39.99
2018-09-24T13:42:30.187Z,35.03
2018-09-24T13:45:04.741Z,32.33
2018-09-24T13:47:39.463Z,29.91
2018-09-24T13:50:13.987Z,29.90
2018-09-24T13:52:48.798Z,29.34
2018-09-24T13:55:23.427Z,29.34
2018-09-24T13:57:58.230Z,28.76
2018-09-24T14:00:32.880Z,26.39
2018-09-24T14:03:08.297Z,25.31
2018-09-24T14:05:43.027Z,24.34
2018-09-24T14:08:17.881Z,26.49
2018-09-24T14:10:52.519Z,26.06
2018-09-24T14:13:27.232Z,26.30
2018-09-24T14:16:01.928Z,26.91
2018-09-24T14:18:37.326Z,26.59
2018-09-24T14:21:11.783Z,25.11
2018-09-24T14:23:46.451Z,25.84
2018-09-24T14:26:20.991Z,26.41
2018-09-24T14:28:55.630Z,26.81
2018-09-24T14:31:30.234Z,27.57
2018-09-24T14:34:05.626Z,27.23
2018-09-24T14:36:40.298Z,28.50
2018-09-24T14:39:15.218Z,27.62
2018-09-24T14:41:49.983Z,27.02
2018-09-24T14:44:24.696Z,29.70
2018-09-24T14:46:59.190Z,32.65
2018-09-24T14:49:33.908Z,33.40
2018-09-24T14:52:08.598Z,34.33
2018-09-24T14:54:43.179Z,33.36
2018-09-24T14:57:17.956Z,34.07
2018-09-24T14:59:52.552Z,32.14
2018-09-24T15:02:27.587Z,30.43
2018-09-24T15:05:02.829Z,27.77
2018-09-24T15:07:37.351Z,28.20
2018-09-24T15:10:12.191Z,30.40
2018-09-24T15:12:46.819Z,30.93
2018-09-24T15:15:21.415Z,30.61
2018-09-24T15:17:56.004Z,29.37
2018-09-24T15:20:30.945Z,30.43
2018-09-24T15:23:05.484Z,32.39
2018-09-24T15:25:40.047Z,33.11
2018-09-24T15:28:14.736Z,34.72
2018-09-24T15:30:49.824Z,34.15
2018-09-24T15:33:24.598Z,33.16
2018-09-24T15:35:59.735Z,35.46
2018-09-24T15:38:34.387Z,35.90
2018-09-24T15:41:09.088Z,36.78
2018-09-24T15:43:43.672Z,37.87
2018-09-24T15:46:18.206Z,38.56
2018-09-24T15:48:52.755Z,40.06
2018-09-24T15:51:27.954Z,41.18
2018-09-24T15:54:02.391Z,42.35
2018-09-24T15:56:36.971Z,42.84
2018-09-24T15:59:11.786Z,42.19
2018-09-24T16:01:46.390Z,43.10
2018-09-24T16:04:21.016Z,43.71
2018-09-24T16:06:55.984Z,43.38
2018-09-24T16:09:30.612Z,44.69
2018-09-24T16:12:05.228Z,45.03
2018-09-24T16:14:39.674Z,45.16
2018-09-24T16:17:14.206Z,50.30
2018-09-24T16:19:48.820Z,47.92
2018-09-24T16:22:23.628Z,45.14
2018-09-24T16:24:57.995Z,44.98
2018-09-24T16:27:32.666Z,45.90
2018-09-24T16:30:07.272Z,45.58
2018-09-24T16:32:41.959Z,45.21
2018-09-24T16:35:16.837Z,45.53
2018-09-24T16:37:51.672Z,46.16
2018-09-24T16:40:27.525Z,46.82
2018-09-24T16:43:02.054Z,47.70
2018-09-24T16:45:36.814Z,48.58
2018-09-24T16:48:11.414Z,49.50
2018-09-24T16:50:46.096Z,52.07
2018-09-24T16:53:20.762Z,53.21
2018-09-24T16:55:55.370Z,53.52
2018-09-24T16:58:30.044Z,55.98
2018-09-24T17:01:04.812Z,55.96
2018-09-24T17:03:39.693Z,56.45
2018-09-24T17:06:14.295Z,56.27
2018-09-24T17:08:49.363Z,57.35
2018-09-24T17:11:23.873Z,58.01
2018-09-24T17:13:58.476Z,58.89
2018-09-24T17:16:33.131Z,59.00
2018-09-24T17:19:07.828Z,59.90
2018-09-24T17:21:42.351Z,60.59
2018-09-24T17:24:17.053Z,61.31
2018-09-24T17:26:51.693Z,60.58
2018-09-24T17:29:26.474Z,61.31
2018-09-24T17:32:01.090Z,62.01
2018-09-24T17:34:35.755Z,62.43
2018-09-24T17:37:10.427Z,62.67
2018-09-24T17:39:45.494Z,62.29
2018-09-24T17:42:20.250Z,62.99
2018-09-24T17:44:54.873Z,62.95
2018-09-24T17:47:29.448Z,64.02
2018-09-24T17:50:04.137Z,63.87
2018-09-24T17:52:38.577Z,63.89
2018-09-24T17:55:13.213Z,64.25
2018-09-24T17:57:48.012Z,64.41
2018-09-24T18:00:22.915Z,65.40
2018-09-24T18:02:57.720Z,64.98
2018-09-24T18:05:32.530Z,64.97
2018-09-24T18:08:07.068Z,64.67
2018-09-24T18:10:42.221Z,63.94
2018-09-24T18:13:16.921Z,63.39
2018-09-24T18:15:51.764Z,63.36
2018-09-24T18:18:26.580Z,63.88
2018-09-24T18:21:01.156Z,63.58
2018-09-24T18:23:35.946Z,63.47
2018-09-24T18:26:10.643Z,63.61
2018-09-24T18:28:46.390Z,63.78
2018-09-24T18:31:20.911Z,63.46
2018-09-24T18:33:55.882Z,64.04
2018-09-24T18:36:30.595Z,63.68
2018-09-24T18:39:05.272Z,64.15
2018-09-24T18:41:40.359Z,64.57
2018-09-24T18:44:15.446Z,64.75
2018-09-24T18:46:50.434Z,64.21
2018-09-24T18:49:25.190Z,64.58
2018-09-24T18:52:00.039Z,65.26
2018-09-24T18:54:34.763Z,65.07
2018-09-24T18:57:10.175Z,64.40
2018-09-24T18:59:44.911Z,65.12
2018-09-24T19:02:20.072Z,65.19
2018-09-24T19:04:55.840Z,65.50
2018-09-24T19:07:30.404Z,65.36
2018-09-24T19:10:05.170Z,65.00
2018-09-24T19:12:39.970Z,65.55
2018-09-24T19:15:14.835Z,65.20
2018-09-24T19:17:49.612Z,65.89
2018-09-24T19:20:24.041Z,65.87
2018-09-24T19:22:58.704Z,65.58
2018-09-24T19:25:33.338Z,65.67
2018-09-24T19:28:08.825Z,65.12
2018-09-24T19:30:45.185Z,65.69
2018-09-24T19:33:20.787Z,66.05
2018-09-24T19:35:55.473Z,65.60
2018-09-24T19:38:30.283Z,65.26
2018-09-24T19:41:05.972Z,65.49
2018-09-24T19:43:40.819Z,65.34
2018-09-24T19:46:23.603Z,66.45
2018-09-24T19:48:58.423Z,66.20
2018-09-24T19:51:33.160Z,65.61
2018-09-24T19:54:07.996Z,66.23
2018-09-24T19:56:42.778Z,66.35
2018-09-24T19:59:17.553Z,66.81
2018-09-24T20:01:52.281Z,66.50
2018-09-24T20:04:26.795Z,66.42
2018-09-24T20:07:01.547Z,66.86
2018-09-24T20:09:36.123Z,67.30
2018-09-24T20:12:10.961Z,67.29
2018-09-24T20:14:47.042Z,67.60
2018-09-24T20:17:23.028Z,67.80
2018-09-24T20:19:58.609Z,67.32
2018-09-24T20:22:33.293Z,67.57
2018-09-24T20:25:08.004Z,67.05
2018-09-24T20:27:42.485Z,67.18
2018-09-24T20:30:17.106Z,67.77
2018-09-24T20:32:51.773Z,67.46
2018-09-24T20:35:26.570Z,67.65
2018-09-24T20:38:01.010Z,67.30
2018-09-24T20:40:35.773Z,67.92
2018-09-24T20:43:10.368Z,68.23
2018-09-24T20:45:45.342Z,67.79
2018-09-24T20:48:19.879Z,68.88
2018-09-24T20:50:54.674Z,68.38
2018-09-24T20:53:29.278Z,67.76
2018-09-24T20:56:04.118Z,67.79
2018-09-24T20:58:38.774Z,68.29
2018-09-24T21:01:13.745Z,68.85
2018-09-24T21:03:48.461Z,68.77
2018-09-24T21:06:22.976Z,69.53
2018-09-24T21:08:57.421Z,69.40
2018-09-24T21:11:32.100Z,68.53
2018-09-24T21:14:06.776Z,68.89
2018-09-24T21:16:41.659Z,69.32
2018-09-24T21:19:17.531Z,68.95
2018-09-24T21:21:52.331Z,69.43
2018-09-24T21:24:27.026Z,68.97
2018-09-24T21:27:01.823Z,69.34
2018-09-24T21:29:36.505Z,70.44
2018-09-24T21:32:11.923Z,69.26
2018-09-24T21:34:47.203Z,69.55
2018-09-24T21:37:21.894Z,69.02
2018-09-24T21:39:56.489Z,69.66
2018-09-24T21:42:31.266Z,68.99
2018-09-24T21:45:05.941Z,68.83
2018-09-24T21:47:40.632Z,70.20
2018-09-24T21:50:15.323Z,70.10
2018-09-24T21:52:50.305Z,70.06
2018-09-24T21:55:25.340Z,69.68
2018-09-24T21:57:59.872Z,69.74
2018-09-24T22:00:34.622Z,69.71
2018-09-24T22:03:09.461Z,69.44
2018-09-24T22:05:44.124Z,69.21
2018-09-24T22:08:18.829Z,70.01
2018-09-24T22:10:53.477Z,70.06
2018-09-24T22:13:28.028Z,69.58
2018-09-24T22:16:02.634Z,69.88
2018-09-24T22:18:37.419Z,69.94
2018-09-24T22:21:12.080Z,70.72
2018-09-24T22:23:46.637Z,70.57
2018-09-24T22:26:21.288Z,70.28
2018-09-24T22:28:56.054Z,70.83
2018-09-24T22:31:30.582Z,70.29
2018-09-24T22:34:05.615Z,70.03
2018-09-24T22:36:40.280Z,71.12
2018-09-24T22:39:15.201Z,70.31
2018-09-24T22:41:49.855Z,70.24
2018-09-24T22:44:24.358Z,71.00
2018-09-24T22:46:58.938Z,70.78
2018-09-24T22:49:33.562Z,69.55
2018-09-24T22:52:08.039Z,70.41
2018-09-24T22:54:42.614Z,69.90
2018-09-24T22:57:17.229Z,69.76
2018-09-24T22:59:52.537Z,70.47
2018-09-24T23:02:27.079Z,69.83
2018-09-24T23:05:02.099Z,69.62
2018-09-24T23:07:36.830Z,69.58
2018-09-24T23:10:12.028Z,69.79
2018-09-24T23:12:46.656Z,69.03
2018-09-24T23:15:21.241Z,69.33
2018-09-24T23:17:55.846Z,69.28
2018-09-24T23:20:31.143Z,68.87
2018-09-24T23:23:05.750Z,69.72
2018-09-24T23:25:40.340Z,68.68
2018-09-24T23:28:14.919Z,69.16
2018-09-24T23:30:49.935Z,68.37
2018-09-24T23:33:24.709Z,68.07
2018-09-24T23:35:59.616Z,68.31
2018-09-24T23:38:34.318Z,68.27
2018-09-24T23:41:09.098Z,69.08
2018-09-24T23:43:43.567Z,68.95
2018-09-24T23:46:18.458Z,69.37
2018-09-24T23:48:53.256Z,70.57
2018-09-24T23:51:28.177Z,70.08
2018-09-24T23:54:02.696Z,69.49
2018-09-24T23:56:37.300Z,69.41
2018-09-24T23:59:11.851Z,70.10
